sensor_id;sensor_type;location;lat;lon;timestamp;pressure;altitude;pressure_sealevel;temperature;humidity
35519;BME280;21627;48.216;16.482;2023-01-29T00:02:17;100824.09;;;-0.70;100.00
35519;BME280;21627;48.216;16.482;2023-01-29T00:04:45;100828.59;;;-0.66;100.00
35519;BME280;21627;48.216;16.482;2023-01-29T00:07:15;100831.31;;;-0.76;100.00
35519;BME280;21627;48.216;16.482;2023-01-29T00:09:42;100827.53;;;-0.82;100.00
35519;BME280;21627;48.216;16.482;2023-01-29T00:12:09;100821.59;;;-0.83;100.00
35519;BME280;21627;48.216;16.482;2023-01-29T00:14:37;100840.59;;;-0.76;100.00
35519;BME280;21627;48.216;16.482;2023-01-29T00:17:07;100845.50;;;-0.79;100.00
35519;BME280;21627;48.216;16.482;2023-01-29T00:19:35;100844.50;;;-0.81;100.00
35519;BME280;21627;48.216;16.482;2023-01-29T00:22:02;100843.63;;;-0.82;100.00
35519;BME280;21627;48.216;16.482;2023-01-29T00:24:29;100840.63;;;-0.90;100.00
35519;BME280;21627;48.216;16.482;2023-01-29T00:26:56;100850.97;;;-0.87;100.00
35519;BME280;21627;48.216;16.482;2023-01-29T00:29:24;100851.75;;;-0.88;100.00
35519;BME280;21627;48.216;16.482;2023-01-29T00:31:51;100855.66;;;-0.79;100.00
35519;BME280;21627;48.216;16.482;2023-01-29T00:34:19;100851.94;;;-0.84;100.00
35519;BME280;21627;48.216;16.482;2023-01-29T00:36:50;100852.81;;;-0.84;100.00
35519;BME280;21627;48.216;16.482;2023-01-29T00:39:17;100839.75;;;-0.90;100.00
35519;BME280;21627;48.216;16.482;2023-01-29T00:42:05;100857.81;;;-0.85;100.00
35519;BME280;21627;48.216;16.482;2023-01-29T00:44:51;100836.72;;;-0.98;100.00
35519;BME280;21627;48.216;16.482;2023-01-29T00:47:25;100855.28;;;-0.85;100.00
35519;BME280;21627;48.216;16.482;2023-01-29T00:50:09;100852.44;;;-0.90;100.00
35519;BME280;21627;48.216;16.482;2023-01-29T00:52:37;100853.88;;;-0.94;100.00
35519;BME280;21627;48.216;16.482;2023-01-29T00:55:08;100861.72;;;-0.91;100.00
35519;BME280;21627;48.216;16.482;2023-01-29T00:57:37;100864.66;;;-0.98;100.00
35519;BME280;21627;48.216;16.482;2023-01-29T01:00:09;100856.41;;;-0.94;100.00
35519;BME280;21627;48.216;16.482;2023-01-29T01:02:37;100849.13;;;-1.02;100.00
35519;BME280;21627;48.216;16.482;2023-01-29T01:05:23;100858.69;;;-0.98;100.00
35519;BME280;21627;48.216;16.482;2023-01-29T01:07:53;100865.63;;;-0.96;100.00
35519;BME280;21627;48.216;16.482;2023-01-29T01:10:31;100854.09;;;-1.04;100.00
35519;BME280;21627;48.216;16.482;2023-01-29T01:13:05;100867.94;;;-0.99;100.00
35519;BME280;21627;48.216;16.482;2023-01-29T01:15:38;100868.63;;;-1.01;100.00
35519;BME280;21627;48.216;16.482;2023-01-29T01:18:05;100874.38;;;-1.04;100.00
35519;BME280;21627;48.216;16.482;2023-01-29T01:20:34;100858.69;;;-0.98;100.00
35519;BME280;21627;48.216;16.482;2023-01-29T01:23:03;100863.47;;;-1.03;100.00
35519;BME280;21627;48.216;16.482;2023-01-29T01:25:30;100855.84;;;-1.03;100.00
35519;BME280;21627;48.216;16.482;2023-01-29T01:27:58;100863.97;;;-0.95;100.00
35519;BME280;21627;48.216;16.482;2023-01-29T01:30:29;100856.81;;;-1.01;100.00
35519;BME280;21627;48.216;16.482;2023-01-29T01:32:56;100861.13;;;-1.00;100.00
35519;BME280;21627;48.216;16.482;2023-01-29T01:35:23;100857.00;;;-1.11;100.00
35519;BME280;21627;48.216;16.482;2023-01-29T01:37:50;100850.75;;;-1.16;100.00
35519;BME280;21627;48.216;16.482;2023-01-29T01:40:20;100850.78;;;-1.03;100.00
35519;BME280;21627;48.216;16.482;2023-01-29T01:42:53;100839.66;;;-1.05;100.00
35519;BME280;21627;48.216;16.482;2023-01-29T01:48:10;100851.06;;;-1.12;100.00
35519;BME280;21627;48.216;16.482;2023-01-29T01:53:33;100837.31;;;-1.28;100.00
35519;BME280;21627;48.216;16.482;2023-01-29T01:56:05;100865.22;;;-1.15;100.00
35519;BME280;21627;48.216;16.482;2023-01-29T01:58:39;100858.16;;;-1.19;100.00
35519;BME280;21627;48.216;16.482;2023-01-29T02:01:08;100853.59;;;-1.25;100.00
35519;BME280;21627;48.216;16.482;2023-01-29T02:04:08;100864.63;;;-1.24;100.00
35519;BME280;21627;48.216;16.482;2023-01-29T02:06:57;100861.78;;;-1.29;100.00
35519;BME280;21627;48.216;16.482;2023-01-29T02:09:52;100868.13;;;-1.22;100.00
35519;BME280;21627;48.216;16.482;2023-01-29T02:12:22;100873.22;;;-1.22;100.00
35519;BME280;21627;48.216;16.482;2023-01-29T02:14:50;100871.47;;;-1.23;100.00
35519;BME280;21627;48.216;16.482;2023-01-29T02:17:19;100873.09;;;-1.24;100.00
35519;BME280;21627;48.216;16.482;2023-01-29T02:32:59;100870.84;;;-1.46;100.00
35519;BME280;21627;48.216;16.482;2023-01-29T02:35:33;100876.78;;;-1.45;100.00
35519;BME280;21627;48.216;16.482;2023-01-29T02:38:20;100887.00;;;-1.44;100.00
35519;BME280;21627;48.216;16.482;2023-01-29T02:41:12;100887.00;;;-1.44;100.00
35519;BME280;21627;48.216;16.482;2023-01-29T02:44:15;100877.66;;;-1.45;100.00
35519;BME280;21627;48.216;16.482;2023-01-29T02:50:02;100894.84;;;-1.41;100.00
35519;BME280;21627;48.216;16.482;2023-01-29T02:53:07;100889.59;;;-1.31;100.00
35519;BME280;21627;48.216;16.482;2023-01-29T02:55:46;100904.19;;;-1.40;100.00
35519;BME280;21627;48.216;16.482;2023-01-29T03:01:08;100896.97;;;-1.47;100.00
35519;BME280;21627;48.216;16.482;2023-01-29T03:03:52;100892.69;;;-1.48;100.00
35519;BME280;21627;48.216;16.482;2023-01-29T03:06:28;100901.66;;;-1.40;100.00
35519;BME280;21627;48.216;16.482;2023-01-29T03:09:00;100893.66;;;-1.46;100.00
35519;BME280;21627;48.216;16.482;2023-01-29T03:11:38;100897.81;;;-1.46;100.00
35519;BME280;21627;48.216;16.482;2023-01-29T03:14:21;100905.44;;;-1.46;100.00
35519;BME280;21627;48.216;16.482;2023-01-29T03:16:52;100905.16;;;-1.51;100.00
35519;BME280;21627;48.216;16.482;2023-01-29T03:19:34;100886.91;;;-1.59;100.00
35519;BME280;21627;48.216;16.482;2023-01-29T03:22:09;100900.75;;;-1.54;100.00
35519;BME280;21627;48.216;16.482;2023-01-29T03:24:56;100898.91;;;-1.56;100.00
35519;BME280;21627;48.216;16.482;2023-01-29T03:30:35;100896.94;;;-1.60;100.00
35519;BME280;21627;48.216;16.482;2023-01-29T03:33:25;100908.81;;;-1.59;100.00
35519;BME280;21627;48.216;16.482;2023-01-29T03:36:00;100917.31;;;-1.59;100.00
35519;BME280;21627;48.216;16.482;2023-01-29T03:38:29;100906.28;;;-1.59;100.00
35519;BME280;21627;48.216;16.482;2023-01-29T03:41:24;100895.47;;;-1.57;100.00
35519;BME280;21627;48.216;16.482;2023-01-29T03:44:12;100898.09;;;-1.55;100.00
35519;BME280;21627;48.216;16.482;2023-01-29T03:53:07;100885.47;;;-1.67;100.00
35519;BME280;21627;48.216;16.482;2023-01-29T04:01:30;100872.41;;;-1.73;100.00
35519;BME280;21627;48.216;16.482;2023-01-29T04:04:40;100876.00;;;-1.69;100.00
35519;BME280;21627;48.216;16.482;2023-01-29T04:07:13;100867.34;;;-1.73;100.00
35519;BME280;21627;48.216;16.482;2023-01-29T04:10:00;100871.09;;;-1.80;100.00
35519;BME280;21627;48.216;16.482;2023-01-29T04:12:31;100859.63;;;-1.75;100.00
35519;BME280;21627;48.216;16.482;2023-01-29T04:15:08;100863.50;;;-1.80;100.00
35519;BME280;21627;48.216;16.482;2023-01-29T04:17:40;100865.13;;;-1.68;100.00
35519;BME280;21627;48.216;16.482;2023-01-29T04:20:10;100864.16;;;-1.82;100.00
35519;BME280;21627;48.216;16.482;2023-01-29T04:22:38;100860.28;;;-1.77;100.00
35519;BME280;21627;48.216;16.482;2023-01-29T04:25:18;100863.78;;;-1.88;100.00
35519;BME280;21627;48.216;16.482;2023-01-29T04:55:54;100888.28;;;-2.01;100.00
35519;BME280;21627;48.216;16.482;2023-01-29T05:00:59;100897.31;;;-2.04;100.00
35519;BME280;21627;48.216;16.482;2023-01-29T05:03:31;100896.09;;;-1.98;100.00
35519;BME280;21627;48.216;16.482;2023-01-29T05:06:01;100889.41;;;-2.09;100.00
35519;BME280;21627;48.216;16.482;2023-01-29T05:08:29;100893.03;;;-2.05;100.00
35519;BME280;21627;48.216;16.482;2023-01-29T05:10:58;100888.63;;;-2.08;100.00
35519;BME280;21627;48.216;16.482;2023-01-29T05:13:29;100905.81;;;-2.04;100.00
35519;BME280;21627;48.216;16.482;2023-01-29T05:18:34;100888.38;;;-1.99;100.00
35519;BME280;21627;48.216;16.482;2023-01-29T05:21:06;100878.34;;;-1.98;100.00
35519;BME280;21627;48.216;16.482;2023-01-29T05:23:34;100884.53;;;-1.94;100.00
35519;BME280;21627;48.216;16.482;2023-01-29T05:26:01;100888.13;;;-1.90;100.00
35519;BME280;21627;48.216;16.482;2023-01-29T05:28:29;100889.28;;;-1.99;100.00
35519;BME280;21627;48.216;16.482;2023-01-29T05:30:56;100881.00;;;-1.96;100.00
35519;BME280;21627;48.216;16.482;2023-01-29T05:33:29;100861.22;;;-2.13;100.00
35519;BME280;21627;48.216;16.482;2023-01-29T05:36:00;100885.84;;;-1.99;100.00
35519;BME280;21627;48.216;16.482;2023-01-29T05:38:27;100871.69;;;-2.09;100.00
35519;BME280;21627;48.216;16.482;2023-01-29T05:40:58;100879.81;;;-2.01;100.00
35519;BME280;21627;48.216;16.482;2023-01-29T05:43:25;100874.88;;;-2.11;100.00
35519;BME280;21627;48.216;16.482;2023-01-29T05:45:55;100882.56;;;-2.10;100.00
35519;BME280;21627;48.216;16.482;2023-01-29T05:48:26;100881.69;;;-2.10;100.00
35519;BME280;21627;48.216;16.482;2023-01-29T05:51:00;100898.31;;;-2.02;100.00
35519;BME280;21627;48.216;16.482;2023-01-29T05:53:28;100884.91;;;-2.13;100.00
35519;BME280;21627;48.216;16.482;2023-01-29T05:55:59;100887.91;;;-2.19;100.00
35519;BME280;21627;48.216;16.482;2023-01-29T05:58:26;100878.00;;;-2.27;100.00
35519;BME280;21627;48.216;16.482;2023-01-29T06:00:53;100883.50;;;-2.21;100.00
35519;BME280;21627;48.216;16.482;2023-01-29T06:03:21;100871.66;;;-2.34;100.00
35519;BME280;21627;48.216;16.482;2023-01-29T06:05:48;100857.31;;;-2.33;100.00
35519;BME280;21627;48.216;16.482;2023-01-29T06:08:15;100877.91;;;-2.29;100.00
35519;BME280;21627;48.216;16.482;2023-01-29T06:10:42;100871.66;;;-2.34;100.00
35519;BME280;21627;48.216;16.482;2023-01-29T06:13:09;100867.13;;;-2.38;100.00
35519;BME280;21627;48.216;16.482;2023-01-29T06:15:39;100860.88;;;-2.43;100.00
35519;BME280;21627;48.216;16.482;2023-01-29T06:18:06;100870.06;;;-2.32;100.00
35519;BME280;21627;48.216;16.482;2023-01-29T06:20:34;100870.53;;;-2.37;100.00
35519;BME280;21627;48.216;16.482;2023-01-29T06:23:01;100868.13;;;-2.48;100.00
35519;BME280;21627;48.216;16.482;2023-01-29T06:25:28;100876.19;;;-2.42;100.00
35519;BME280;21627;48.216;16.482;2023-01-29T06:27:55;100884.00;;;-2.50;100.00
35519;BME280;21627;48.216;16.482;2023-01-29T06:30:25;100875.31;;;-2.54;100.00
35519;BME280;21627;48.216;16.482;2023-01-29T06:32:58;100862.13;;;-2.62;100.00
35519;BME280;21627;48.216;16.482;2023-01-29T06:35:27;100883.78;;;-2.53;100.00
35519;BME280;21627;48.216;16.482;2023-01-29T06:37:55;100882.03;;;-2.54;100.00
35519;BME280;21627;48.216;16.482;2023-01-29T06:40:26;100883.13;;;-2.63;100.00
35519;BME280;21627;48.216;16.482;2023-01-29T06:42:53;100893.38;;;-2.61;100.00
35519;BME280;21627;48.216;16.482;2023-01-29T06:45:23;100892.38;;;-2.63;100.00
35519;BME280;21627;48.216;16.482;2023-01-29T06:47:55;100892.91;;;-2.67;100.00
35519;BME280;21627;48.216;16.482;2023-01-29T06:50:22;100903.38;;;-2.63;100.00
35519;BME280;21627;48.216;16.482;2023-01-29T06:52:50;100899.97;;;-2.63;100.00
35519;BME280;21627;48.216;16.482;2023-01-29T06:55:17;100899.84;;;-2.65;100.00
35519;BME280;21627;48.216;16.482;2023-01-29T06:57:47;100891.97;;;-2.69;100.00
35519;BME280;21627;48.216;16.482;2023-01-29T07:00:15;100889.19;;;-2.61;100.00
35519;BME280;21627;48.216;16.482;2023-01-29T07:02:43;100877.19;;;-2.63;100.00
35519;BME280;21627;48.216;16.482;2023-01-29T07:05:10;100882.47;;;-2.60;100.00
35519;BME280;21627;48.216;16.482;2023-01-29T07:07:37;100878.97;;;-2.62;100.00
35519;BME280;21627;48.216;16.482;2023-01-29T07:10:05;100884.91;;;-2.62;100.00
35519;BME280;21627;48.216;16.482;2023-01-29T07:12:36;100884.03;;;-2.62;100.00
35519;BME280;21627;48.216;16.482;2023-01-29T07:15:04;100892.25;;;-2.53;100.00
35519;BME280;21627;48.216;16.482;2023-01-29T07:17:31;100890.97;;;-2.59;100.00
35519;BME280;21627;48.216;16.482;2023-01-29T07:19:58;100884.78;;;-2.63;100.00
35519;BME280;21627;48.216;16.482;2023-01-29T07:22:26;100899.53;;;-2.57;100.00
35519;BME280;21627;48.216;16.482;2023-01-29T07:24:53;100871.13;;;-2.65;100.00
35519;BME280;21627;48.216;16.482;2023-01-29T07:27:20;100887.97;;;-2.54;100.00
35519;BME280;21627;48.216;16.482;2023-01-29T07:29:47;100881.13;;;-2.55;100.00
35519;BME280;21627;48.216;16.482;2023-01-29T07:32:14;100885.66;;;-2.51;100.00
35519;BME280;21627;48.216;16.482;2023-01-29T07:34:45;100884.13;;;-2.49;100.00
35519;BME280;21627;48.216;16.482;2023-01-29T07:37:12;100890.00;;;-2.25;100.00
35519;BME280;21627;48.216;16.482;2023-01-29T07:39:39;100887.81;;;-2.32;100.00
35519;BME280;21627;48.216;16.482;2023-01-29T07:42:06;100882.97;;;-2.29;100.00
35519;BME280;21627;48.216;16.482;2023-01-29T07:44:34;100883.66;;;-2.31;99.44
35519;BME280;21627;48.216;16.482;2023-01-29T07:47:01;100867.13;;;-2.38;100.00
35519;BME280;21627;48.216;16.482;2023-01-29T07:49:28;100883.19;;;-2.26;100.00
35519;BME280;21627;48.216;16.482;2023-01-29T07:51:56;100878.19;;;-2.12;96.48
35519;BME280;21627;48.216;16.482;2023-01-29T07:54:23;100880.84;;;-2.23;97.69
35519;BME280;21627;48.216;16.482;2023-01-29T07:56:51;100877.13;;;-2.28;99.79
35519;BME280;21627;48.216;16.482;2023-01-29T07:59:21;100888.56;;;-2.21;98.71
35519;BME280;21627;48.216;16.482;2023-01-29T08:01:48;100892.84;;;-2.20;100.00
35519;BME280;21627;48.216;16.482;2023-01-29T08:04:15;100892.31;;;-2.16;98.10
35519;BME280;21627;48.216;16.482;2023-01-29T08:06:43;100884.94;;;-2.25;98.50
35519;BME280;21627;48.216;16.482;2023-01-29T08:09:11;100884.13;;;-2.12;98.55
35519;BME280;21627;48.216;16.482;2023-01-29T08:11:38;100901.81;;;-2.00;97.19
35519;BME280;21627;48.216;16.482;2023-01-29T08:14:06;100883.00;;;-2.04;95.13
35519;BME280;21627;48.216;16.482;2023-01-29T08:16:35;100890.47;;;-1.93;93.91
35519;BME280;21627;48.216;16.482;2023-01-29T08:19:02;100901.47;;;-1.93;94.77
35519;BME280;21627;48.216;16.482;2023-01-29T08:21:29;100897.72;;;-1.86;92.94
35519;BME280;21627;48.216;16.482;2023-01-29T08:23:56;100905.91;;;-1.77;93.88
35519;BME280;21627;48.216;16.482;2023-01-29T08:26:27;100884.59;;;-1.92;92.20
35519;BME280;21627;48.216;16.482;2023-01-29T08:28:54;100889.19;;;-1.87;92.67
35519;BME280;21627;48.216;16.482;2023-01-29T08:31:21;100892.78;;;-1.71;92.01
35519;BME280;21627;48.216;16.482;2023-01-29T08:33:49;100895.75;;;-1.65;92.32
35519;BME280;21627;48.216;16.482;2023-01-29T08:36:16;100902.25;;;-1.69;90.72
35519;BME280;21627;48.216;16.482;2023-01-29T08:38:44;100917.84;;;-1.51;90.53
35519;BME280;21627;48.216;16.482;2023-01-29T08:41:11;100918.19;;;-1.58;89.27
35519;BME280;21627;48.216;16.482;2023-01-29T08:43:38;100924.66;;;-1.50;88.48
35519;BME280;21627;48.216;16.482;2023-01-29T08:46:07;100917.84;;;-1.51;90.74
35519;BME280;21627;48.216;16.482;2023-01-29T08:48:37;100934.50;;;-1.55;90.47
35519;BME280;21627;48.216;16.482;2023-01-29T08:51:05;100932.06;;;-1.53;91.29
35519;BME280;21627;48.216;16.482;2023-01-29T08:53:35;100920.16;;;-1.54;90.86
35519;BME280;21627;48.216;16.482;2023-01-29T08:56:02;100922.47;;;-1.57;92.05
35519;BME280;21627;48.216;16.482;2023-01-29T08:58:29;100942.53;;;-1.48;91.47
35519;BME280;21627;48.216;16.482;2023-01-29T09:01:09;100944.78;;;-1.40;88.87
35519;BME280;21627;48.216;16.482;2023-01-29T09:03:36;100945.47;;;-1.42;90.83
35519;BME280;21627;48.216;16.482;2023-01-29T09:06:10;100939.91;;;-1.37;90.11
35519;BME280;21627;48.216;16.482;2023-01-29T09:08:38;100945.78;;;-1.38;89.81
35519;BME280;21627;48.216;16.482;2023-01-29T09:11:05;100935.13;;;-1.45;90.20
35519;BME280;21627;48.216;16.482;2023-01-29T09:13:33;100940.28;;;-1.44;88.62
35519;BME280;21627;48.216;16.482;2023-01-29T09:16:02;100942.56;;;-1.35;91.34
35519;BME280;21627;48.216;16.482;2023-01-29T09:18:31;100928.00;;;-1.38;92.08
35519;BME280;21627;48.216;16.482;2023-01-29T09:20:58;100940.66;;;-1.26;90.72
35519;BME280;21627;48.216;16.482;2023-01-29T09:23:25;100940.84;;;-1.23;89.48
35519;BME280;21627;48.216;16.482;2023-01-29T09:25:57;100933.03;;;-1.26;87.14
35519;BME280;21627;48.216;16.482;2023-01-29T09:28:27;100952.34;;;-1.28;87.46
35519;BME280;21627;48.216;16.482;2023-01-29T09:30:55;100948.50;;;-1.35;87.03
35519;BME280;21627;48.216;16.482;2023-01-29T09:33:22;100943.25;;;-1.38;86.69
35519;BME280;21627;48.216;16.482;2023-01-29T09:35:50;100952.03;;;-1.33;87.99
35519;BME280;21627;48.216;16.482;2023-01-29T09:38:18;100938.25;;;-1.36;87.68
35519;BME280;21627;48.216;16.482;2023-01-29T09:41:07;100929.44;;;-1.41;86.78
35519;BME280;21627;48.216;16.482;2023-01-29T09:43:56;100933.91;;;-1.25;88.00
35519;BME280;21627;48.216;16.482;2023-01-29T09:46:43;100943.78;;;-1.17;87.28
35519;BME280;21627;48.216;16.482;2023-01-29T09:49:34;100952.69;;;-1.10;88.01
35519;BME280;21627;48.216;16.482;2023-01-29T09:52:06;100951.88;;;-1.09;86.69
35519;BME280;21627;48.216;16.482;2023-01-29T09:55:36;100941.25;;;-1.03;87.29
35519;BME280;21627;48.216;16.482;2023-01-29T09:58:04;100933.38;;;-0.95;88.41
35519;BME280;21627;48.216;16.482;2023-01-29T10:26:42;100928.69;;;-0.49;92.06
35519;BME280;21627;48.216;16.482;2023-01-29T10:29:16;100927.44;;;-0.42;88.42
35519;BME280;21627;48.216;16.482;2023-01-29T10:31:51;100915.19;;;-0.34;89.80
35519;BME280;21627;48.216;16.482;2023-01-29T10:34:29;100914.09;;;-0.25;87.53
35519;BME280;21627;48.216;16.482;2023-01-29T10:37:17;100903.03;;;-0.12;87.63
35519;BME280;21627;48.216;16.482;2023-01-29T10:39:45;100890.16;;;-0.15;87.01
35519;BME280;21627;48.216;16.482;2023-01-29T10:42:42;100903.56;;;-0.03;91.57
35519;BME280;21627;48.216;16.482;2023-01-29T10:45:43;100883.84;;;-0.07;86.02
35519;BME280;21627;48.216;16.482;2023-01-29T10:48:34;100895.28;;;0.00;88.45
35519;BME280;21627;48.216;16.482;2023-01-29T10:51:29;100899.16;;;0.08;90.06
35519;BME280;21627;48.216;16.482;2023-01-29T11:02:19;100886.97;;;0.03;86.79
35519;BME280;21627;48.216;16.482;2023-01-29T11:04:48;100893.63;;;-0.13;86.39
35519;BME280;21627;48.216;16.482;2023-01-29T11:07:18;100895.47;;;-0.10;83.72
35519;BME280;21627;48.216;16.482;2023-01-29T11:10:13;100887.50;;;-0.16;87.58
35519;BME280;21627;48.216;16.482;2023-01-29T11:12:45;100894.44;;;-0.14;88.92
35519;BME280;21627;48.216;16.482;2023-01-29T11:15:19;100888.28;;;-0.17;87.62
35519;BME280;21627;48.216;16.482;2023-01-29T11:18:06;100888.53;;;-0.13;90.89
35519;BME280;21627;48.216;16.482;2023-01-29T11:20:38;100877.69;;;-0.10;88.12
35519;BME280;21627;48.216;16.482;2023-01-29T11:23:17;100866.75;;;-0.09;88.05
35519;BME280;21627;48.216;16.482;2023-01-29T11:25:55;100861.84;;;-0.06;87.54
35519;BME280;21627;48.216;16.482;2023-01-29T11:28:47;100844.84;;;-0.07;87.73
35519;BME280;21627;48.216;16.482;2023-01-29T11:31:23;100836.47;;;0.09;86.25
35519;BME280;21627;48.216;16.482;2023-01-29T11:34:22;100832.34;;;0.11;87.88
35519;BME280;21627;48.216;16.482;2023-01-29T11:37:03;100829.00;;;0.12;89.99
35519;BME280;21627;48.216;16.482;2023-01-29T11:39:45;100824.66;;;0.24;86.61
35519;BME280;21627;48.216;16.482;2023-01-29T11:42:22;100800.78;;;0.22;84.80
35519;BME280;21627;48.216;16.482;2023-01-29T11:44:49;100811.41;;;0.30;87.11
35519;BME280;21627;48.216;16.482;2023-01-29T11:47:29;100804.91;;;0.35;87.92
35519;BME280;21627;48.216;16.482;2023-01-29T11:50:02;100797.50;;;0.38;91.17
35519;BME280;21627;48.216;16.482;2023-01-29T11:52:39;100798.63;;;0.43;93.03
35519;BME280;21627;48.216;16.482;2023-01-29T11:55:22;100790.63;;;0.52;87.65
35519;BME280;21627;48.216;16.482;2023-01-29T12:00:27;100776.59;;;0.43;84.09
35519;BME280;21627;48.216;16.482;2023-01-29T12:03:35;100771.50;;;0.29;85.81
35519;BME280;21627;48.216;16.482;2023-01-29T12:06:27;100760.38;;;0.41;82.83
35519;BME280;21627;48.216;16.482;2023-01-29T12:09:00;100748.16;;;0.66;83.77
35519;BME280;21627;48.216;16.482;2023-01-29T12:11:31;100731.13;;;0.96;84.62
35519;BME280;21627;48.216;16.482;2023-01-29T12:14:05;100744.97;;;1.32;78.96
35519;BME280;21627;48.216;16.482;2023-01-29T12:19:47;100729.59;;;1.80;79.58
35519;BME280;21627;48.216;16.482;2023-01-29T12:28:05;100720.94;;;2.28;75.62
35519;BME280;21627;48.216;16.482;2023-01-29T12:33:42;100707.53;;;2.68;72.44
35519;BME280;21627;48.216;16.482;2023-01-29T12:36:30;100725.13;;;2.80;69.39
35519;BME280;21627;48.216;16.482;2023-01-29T12:39:00;100720.22;;;2.85;75.67
35519;BME280;21627;48.216;16.482;2023-01-29T12:42:12;100723.50;;;3.19;69.70
35519;BME280;21627;48.216;16.482;2023-01-29T12:47:53;100709.69;;;3.34;67.85
35519;BME280;21627;48.216;16.482;2023-01-29T12:50:30;100697.84;;;3.36;69.14
35519;BME280;21627;48.216;16.482;2023-01-29T12:55:46;100689.56;;;3.61;72.51
35519;BME280;21627;48.216;16.482;2023-01-29T12:58:31;100701.53;;;3.62;67.34
35519;BME280;21627;48.216;16.482;2023-01-29T13:01:19;100686.66;;;3.34;70.35
35519;BME280;21627;48.216;16.482;2023-01-29T13:04:02;100681.19;;;3.65;68.51
35519;BME280;21627;48.216;16.482;2023-01-29T13:06:40;100677.97;;;3.69;67.96
35519;BME280;21627;48.216;16.482;2023-01-29T13:09:16;100668.88;;;3.76;67.10
35519;BME280;21627;48.216;16.482;2023-01-29T13:12:02;100680.75;;;3.95;66.08
35519;BME280;21627;48.216;16.482;2023-01-29T13:14:57;100658.34;;;4.10;66.62
35519;BME280;21627;48.216;16.482;2023-01-29T13:18:05;100666.88;;;4.10;64.57
35519;BME280;21627;48.216;16.482;2023-01-29T13:20:33;100671.19;;;3.90;64.94
35519;BME280;21627;48.216;16.482;2023-01-29T13:23:37;100659.31;;;3.72;66.56
35519;BME280;21627;48.216;16.482;2023-01-29T13:26:09;100670.91;;;3.63;71.77
35519;BME280;21627;48.216;16.482;2023-01-29T13:28:44;100678.97;;;3.73;67.95
35519;BME280;21627;48.216;16.482;2023-01-29T13:31:34;100673.84;;;3.73;72.32
35519;BME280;21627;48.216;16.482;2023-01-29T13:34:14;100668.91;;;3.56;71.55
35519;BME280;21627;48.216;16.482;2023-01-29T13:36:55;100663.03;;;3.59;72.99
35519;BME280;21627;48.216;16.482;2023-01-29T13:39:31;100670.44;;;3.53;70.23
35519;BME280;21627;48.216;16.482;2023-01-29T13:42:14;100667.25;;;3.18;68.36
35519;BME280;21627;48.216;16.482;2023-01-29T13:44:54;100667.41;;;2.66;70.94
35519;BME280;21627;48.216;16.482;2023-01-29T13:47:32;100666.25;;;2.59;73.37
35519;BME280;21627;48.216;16.482;2023-01-29T13:50:29;100666.84;;;2.53;74.86
35519;BME280;21627;48.216;16.482;2023-01-29T13:53:02;100666.94;;;2.37;77.19
35519;BME280;21627;48.216;16.482;2023-01-29T13:55:34;100669.31;;;2.34;76.66
35519;BME280;21627;48.216;16.482;2023-01-29T13:58:14;100669.31;;;2.16;76.77
35519;BME280;21627;48.216;16.482;2023-01-29T14:05:57;100666.72;;;1.80;80.94
35519;BME280;21627;48.216;16.482;2023-01-29T14:13:47;100657.63;;;1.35;79.25
35519;BME280;21627;48.216;16.482;2023-01-29T14:18:52;100649.50;;;1.09;86.43
35519;BME280;21627;48.216;16.482;2023-01-29T14:21:33;100662.69;;;1.18;82.43
35519;BME280;21627;48.216;16.482;2023-01-29T14:24:18;100660.25;;;1.03;84.32
35519;BME280;21627;48.216;16.482;2023-01-29T14:26:52;100664.75;;;0.93;84.56
35519;BME280;21627;48.216;16.482;2023-01-29T14:29:34;100661.25;;;0.91;85.12
35519;BME280;21627;48.216;16.482;2023-01-29T14:34:41;100655.13;;;0.87;84.91
35519;BME280;21627;48.216;16.482;2023-01-29T14:39:57;100648.91;;;0.82;87.87
35519;BME280;21627;48.216;16.482;2023-01-29T14:42:37;100660.84;;;0.83;89.56
35519;BME280;21627;48.216;16.482;2023-01-29T14:50:45;100658.38;;;0.68;86.71
35519;BME280;21627;48.216;16.482;2023-01-29T14:57:01;100655.88;;;0.53;90.32
35519;BME280;21627;48.216;16.482;2023-01-29T15:00:00;100651.94;;;0.43;87.67
35519;BME280;21627;48.216;16.482;2023-01-29T15:02:42;100664.94;;;0.33;90.22
35519;BME280;21627;48.216;16.482;2023-01-29T15:05:20;100667.13;;;0.27;91.91
35519;BME280;21627;48.216;16.482;2023-01-29T15:07:59;100651.13;;;0.13;92.83
35519;BME280;21627;48.216;16.482;2023-01-29T15:13:28;100660.50;;;-0.01;96.89
35519;BME280;21627;48.216;16.482;2023-01-29T15:16:26;100655.50;;;-0.14;100.00
35519;BME280;21627;48.216;16.482;2023-01-29T15:19:47;100676.38;;;-0.05;99.43
35519;BME280;21627;48.216;16.482;2023-01-29T15:22:22;100671.88;;;-0.09;97.77
35519;BME280;21627;48.216;16.482;2023-01-29T15:25:12;100685.03;;;-0.16;97.28
35519;BME280;21627;48.216;16.482;2023-01-29T15:27:42;100670.16;;;-0.25;96.19
35519;BME280;21627;48.216;16.482;2023-01-29T15:30:21;100672.38;;;-0.44;100.00
35519;BME280;21627;48.216;16.482;2023-01-29T15:32:49;100676.66;;;-0.43;100.00
35519;BME280;21627;48.216;16.482;2023-01-29T15:36:02;100665.81;;;-0.40;98.03
35519;BME280;21627;48.216;16.482;2023-01-29T15:38:34;100673.19;;;-0.45;99.01
35519;BME280;21627;48.216;16.482;2023-01-29T15:41:20;100665.59;;;-0.58;100.00
35519;BME280;21627;48.216;16.482;2023-01-29T15:43:58;100665.50;;;-0.75;100.00
35519;BME280;21627;48.216;16.482;2023-01-29T15:46:33;100677.31;;;-0.75;100.00
35519;BME280;21627;48.216;16.482;2023-01-29T15:49:08;100678.59;;;-0.82;100.00
35519;BME280;21627;48.216;16.482;2023-01-29T15:51:38;100675.31;;;-0.94;100.00
35519;BME280;21627;48.216;16.482;2023-01-29T15:54:13;100672.28;;;-0.89;100.00
35519;BME280;21627;48.216;16.482;2023-01-29T15:56:50;100681.50;;;-1.04;100.00